sensor_id;sensor_type;location;lat;lon;timestamp;P1;durP1;ratioP1;P2;durP2;ratioP2
18210;SDS011;9231;48.852;9.882;2023-08-06T00:00:08;5.73;;;3.30;;
18210;SDS011;9231;48.852;9.882;2023-08-06T00:02:37;3.93;;;3.10;;
18210;SDS011;9231;48.852;9.882;2023-08-06T00:05:04;3.50;;;3.00;;
18210;SDS011;9231;48.852;9.882;2023-08-06T00:07:31;3.90;;;3.00;;
18210;SDS011;9231;48.852;9.882;2023-08-06T00:09:57;5.57;;;2.80;;
18210;SDS011;9231;48.852;9.882;2023-08-06T00:12:24;4.00;;;2.90;;
18210;SDS011;9231;48.852;9.882;2023-08-06T00:14:53;3.93;;;3.27;;
18210;SDS011;9231;48.852;9.882;2023-08-06T00:17:21;5.77;;;3.20;;
18210;SDS011;9231;48.852;9.882;2023-08-06T00:19:47;3.33;;;3.03;;
18210;SDS011;9231;48.852;9.882;2023-08-06T00:22:13;3.90;;;3.60;;
18210;SDS011;9231;48.852;9.882;2023-08-06T00:24:40;4.93;;;3.40;;
18210;SDS011;9231;48.852;9.882;2023-08-06T00:27:06;3.70;;;3.30;;
18210;SDS011;9231;48.852;9.882;2023-08-06T00:29:33;4.20;;;3.37;;
18210;SDS011;9231;48.852;9.882;2023-08-06T00:32:00;4.17;;;3.60;;
18210;SDS011;9231;48.852;9.882;2023-08-06T00:34:27;4.97;;;3.63;;
18210;SDS011;9231;48.852;9.882;2023-08-06T00:36:54;6.93;;;3.50;;
18210;SDS011;9231;48.852;9.882;2023-08-06T00:39:20;4.07;;;3.67;;
18210;SDS011;9231;48.852;9.882;2023-08-06T00:41:47;5.40;;;3.97;;
18210;SDS011;9231;48.852;9.882;2023-08-06T00:44:13;7.97;;;3.67;;
18210;SDS011;9231;48.852;9.882;2023-08-06T00:46:39;4.73;;;3.70;;
18210;SDS011;9231;48.852;9.882;2023-08-06T00:49:06;4.80;;;3.70;;
18210;SDS011;9231;48.852;9.882;2023-08-06T00:51:34;5.00;;;3.63;;
18210;SDS011;9231;48.852;9.882;2023-08-06T00:54:01;3.80;;;3.23;;
18210;SDS011;9231;48.852;9.882;2023-08-06T00:56:28;4.73;;;3.90;;
18210;SDS011;9231;48.852;9.882;2023-08-06T00:58:54;4.63;;;3.50;;
18210;SDS011;9231;48.852;9.882;2023-08-06T01:01:21;5.00;;;3.87;;
18210;SDS011;9231;48.852;9.882;2023-08-06T01:03:47;6.80;;;3.73;;
18210;SDS011;9231;48.852;9.882;2023-08-06T01:06:14;6.07;;;4.03;;
18210;SDS011;9231;48.852;9.882;2023-08-06T01:08:47;5.60;;;3.90;;
18210;SDS011;9231;48.852;9.882;2023-08-06T01:11:17;7.77;;;3.70;;
18210;SDS011;9231;48.852;9.882;2023-08-06T01:13:46;10.37;;;3.93;;
18210;SDS011;9231;48.852;9.882;2023-08-06T01:16:15;4.07;;;3.50;;
18210;SDS011;9231;48.852;9.882;2023-08-06T01:18:42;4.47;;;3.60;;
18210;SDS011;9231;48.852;9.882;2023-08-06T01:21:12;4.03;;;3.63;;
18210;SDS011;9231;48.852;9.882;2023-08-06T01:23:39;5.50;;;4.10;;
18210;SDS011;9231;48.852;9.882;2023-08-06T01:26:07;4.23;;;3.83;;
18210;SDS011;9231;48.852;9.882;2023-08-06T01:28:39;4.17;;;3.40;;
18210;SDS011;9231;48.852;9.882;2023-08-06T01:31:07;6.03;;;3.80;;
18210;SDS011;9231;48.852;9.882;2023-08-06T01:33:37;4.80;;;3.43;;
18210;SDS011;9231;48.852;9.882;2023-08-06T01:36:04;4.43;;;3.67;;
18210;SDS011;9231;48.852;9.882;2023-08-06T01:38:33;4.67;;;3.50;;
18210;SDS011;9231;48.852;9.882;2023-08-06T01:40:59;4.83;;;3.53;;
18210;SDS011;9231;48.852;9.882;2023-08-06T01:43:26;3.57;;;3.27;;
18210;SDS011;9231;48.852;9.882;2023-08-06T01:45:52;3.90;;;3.50;;
18210;SDS011;9231;48.852;9.882;2023-08-06T01:48:19;4.27;;;3.87;;
18210;SDS011;9231;48.852;9.882;2023-08-06T01:50:45;4.60;;;3.80;;
18210;SDS011;9231;48.852;9.882;2023-08-06T01:53:11;4.77;;;4.03;;
18210;SDS011;9231;48.852;9.882;2023-08-06T01:55:39;4.47;;;4.07;;
18210;SDS011;9231;48.852;9.882;2023-08-06T01:58:06;5.43;;;3.97;;
18210;SDS011;9231;48.852;9.882;2023-08-06T02:00:32;4.83;;;3.70;;
18210;SDS011;9231;48.852;9.882;2023-08-06T02:02:59;5.70;;;4.13;;
18210;SDS011;9231;48.852;9.882;2023-08-06T02:05:25;5.37;;;3.70;;
18210;SDS011;9231;48.852;9.882;2023-08-06T02:07:51;5.70;;;3.83;;
18210;SDS011;9231;48.852;9.882;2023-08-06T02:10:18;4.87;;;3.70;;
18210;SDS011;9231;48.852;9.882;2023-08-06T02:12:46;5.40;;;3.93;;
18210;SDS011;9231;48.852;9.882;2023-08-06T02:15:12;4.27;;;3.60;;
18210;SDS011;9231;48.852;9.882;2023-08-06T02:17:39;3.57;;;3.20;;
18210;SDS011;9231;48.852;9.882;2023-08-06T02:20:05;4.33;;;3.00;;
18210;SDS011;9231;48.852;9.882;2023-08-06T02:22:32;3.77;;;3.13;;
18210;SDS011;9231;48.852;9.882;2023-08-06T02:24:58;3.20;;;2.90;;
18210;SDS011;9231;48.852;9.882;2023-08-06T02:27:25;2.80;;;2.60;;
18210;SDS011;9231;48.852;9.882;2023-08-06T02:29:53;2.97;;;2.43;;
18210;SDS011;9231;48.852;9.882;2023-08-06T02:32:19;3.17;;;2.87;;
18210;SDS011;9231;48.852;9.882;2023-08-06T02:34:45;6.43;;;3.10;;
18210;SDS011;9231;48.852;9.882;2023-08-06T02:37:12;3.63;;;2.60;;
18210;SDS011;9231;48.852;9.882;2023-08-06T02:39:38;3.87;;;3.10;;
18210;SDS011;9231;48.852;9.882;2023-08-06T02:42:06;2.70;;;2.50;;
18210;SDS011;9231;48.852;9.882;2023-08-06T02:44:32;3.97;;;2.87;;
18210;SDS011;9231;48.852;9.882;2023-08-06T02:47:00;6.30;;;2.90;;
18210;SDS011;9231;48.852;9.882;2023-08-06T02:49:26;5.00;;;3.00;;
18210;SDS011;9231;48.852;9.882;2023-08-06T02:51:53;3.47;;;2.37;;
18210;SDS011;9231;48.852;9.882;2023-08-06T02:54:19;3.57;;;2.60;;
18210;SDS011;9231;48.852;9.882;2023-08-06T02:56:45;3.40;;;2.50;;
18210;SDS011;9231;48.852;9.882;2023-08-06T02:59:12;4.60;;;3.13;;
18210;SDS011;9231;48.852;9.882;2023-08-06T03:01:39;4.47;;;2.87;;
18210;SDS011;9231;48.852;9.882;2023-08-06T03:04:07;2.70;;;2.40;;
18210;SDS011;9231;48.852;9.882;2023-08-06T03:06:33;8.57;;;3.13;;
18210;SDS011;9231;48.852;9.882;2023-08-06T03:08:59;3.37;;;2.60;;
18210;SDS011;9231;48.852;9.882;2023-08-06T03:11:26;2.83;;;2.63;;
18210;SDS011;9231;48.852;9.882;2023-08-06T03:13:52;3.63;;;2.70;;
18210;SDS011;9231;48.852;9.882;2023-08-06T03:16:19;5.87;;;3.17;;
18210;SDS011;9231;48.852;9.882;2023-08-06T03:18:45;5.60;;;2.97;;
18210;SDS011;9231;48.852;9.882;2023-08-06T03:21:14;5.60;;;3.03;;
18210;SDS011;9231;48.852;9.882;2023-08-06T03:23:40;3.23;;;2.77;;
18210;SDS011;9231;48.852;9.882;2023-08-06T03:26:07;5.07;;;3.10;;
18210;SDS011;9231;48.852;9.882;2023-08-06T03:28:33;3.10;;;2.80;;
18210;SDS011;9231;48.852;9.882;2023-08-06T03:31:00;3.17;;;2.73;;
18210;SDS011;9231;48.852;9.882;2023-08-06T03:33:27;3.30;;;2.83;;
18210;SDS011;9231;48.852;9.882;2023-08-06T03:35:53;5.00;;;2.43;;
18210;SDS011;9231;48.852;9.882;2023-08-06T03:38:21;2.63;;;2.30;;
18210;SDS011;9231;48.852;9.882;2023-08-06T03:40:48;5.47;;;2.40;;
18210;SDS011;9231;48.852;9.882;2023-08-06T03:43:15;2.43;;;2.20;;
18210;SDS011;9231;48.852;9.882;2023-08-06T03:45:42;3.27;;;2.50;;
18210;SDS011;9231;48.852;9.882;2023-08-06T03:48:08;5.10;;;2.50;;
18210;SDS011;9231;48.852;9.882;2023-08-06T03:50:35;3.03;;;1.93;;
18210;SDS011;9231;48.852;9.882;2023-08-06T03:53:01;4.50;;;2.37;;
18210;SDS011;9231;48.852;9.882;2023-08-06T03:55:29;2.97;;;2.47;;
18210;SDS011;9231;48.852;9.882;2023-08-06T03:57:56;3.20;;;2.10;;
18210;SDS011;9231;48.852;9.882;2023-08-06T04:00:22;3.27;;;2.10;;
18210;SDS011;9231;48.852;9.882;2023-08-06T04:02:49;5.50;;;2.20;;
18210;SDS011;9231;48.852;9.882;2023-08-06T04:05:15;3.30;;;2.30;;
18210;SDS011;9231;48.852;9.882;2023-08-06T04:07:42;4.23;;;2.40;;
18210;SDS011;9231;48.852;9.882;2023-08-06T04:10:09;4.67;;;2.50;;
18210;SDS011;9231;48.852;9.882;2023-08-06T04:12:36;4.83;;;2.83;;
18210;SDS011;9231;48.852;9.882;2023-08-06T04:15:04;3.87;;;2.40;;
18210;SDS011;9231;48.852;9.882;2023-08-06T04:17:31;3.17;;;2.70;;
18210;SDS011;9231;48.852;9.882;2023-08-06T04:19:57;3.33;;;2.37;;
18210;SDS011;9231;48.852;9.882;2023-08-06T04:22:24;3.03;;;2.27;;
18210;SDS011;9231;48.852;9.882;2023-08-06T04:24:50;2.30;;;2.10;;
18210;SDS011;9231;48.852;9.882;2023-08-06T04:27:19;2.70;;;2.30;;
18210;SDS011;9231;48.852;9.882;2023-08-06T04:29:46;2.70;;;1.77;;
18210;SDS011;9231;48.852;9.882;2023-08-06T04:32:13;3.37;;;2.30;;
18210;SDS011;9231;48.852;9.882;2023-08-06T04:34:39;3.70;;;2.23;;
18210;SDS011;9231;48.852;9.882;2023-08-06T04:37:06;3.07;;;1.63;;
18210;SDS011;9231;48.852;9.882;2023-08-06T04:39:32;3.00;;;1.80;;
18210;SDS011;9231;48.852;9.882;2023-08-06T04:41:59;3.47;;;1.50;;
18210;SDS011;9231;48.852;9.882;2023-08-06T04:44:25;6.43;;;2.03;;
18210;SDS011;9231;48.852;9.882;2023-08-06T04:46:53;3.33;;;1.50;;
18210;SDS011;9231;48.852;9.882;2023-08-06T04:49:20;2.70;;;1.70;;
18210;SDS011;9231;48.852;9.882;2023-08-06T04:51:46;3.70;;;2.03;;
18210;SDS011;9231;48.852;9.882;2023-08-06T04:54:13;2.60;;;1.80;;
18210;SDS011;9231;48.852;9.882;2023-08-06T04:56:39;3.57;;;1.70;;
18210;SDS011;9231;48.852;9.882;2023-08-06T04:59:06;4.83;;;1.73;;
18210;SDS011;9231;48.852;9.882;2023-08-06T05:01:32;4.13;;;1.97;;
18210;SDS011;9231;48.852;9.882;2023-08-06T05:04:02;3.60;;;1.60;;
18210;SDS011;9231;48.852;9.882;2023-08-06T05:06:29;4.70;;;1.70;;
18210;SDS011;9231;48.852;9.882;2023-08-06T05:08:55;4.90;;;1.57;;
18210;SDS011;9231;48.852;9.882;2023-08-06T05:11:22;4.13;;;1.70;;
18210;SDS011;9231;48.852;9.882;2023-08-06T05:13:49;2.80;;;1.70;;
18210;SDS011;9231;48.852;9.882;2023-08-06T05:16:15;2.50;;;1.70;;
18210;SDS011;9231;48.852;9.882;2023-08-06T05:18:42;1.80;;;1.70;;
18210;SDS011;9231;48.852;9.882;2023-08-06T05:21:09;2.50;;;1.50;;
18210;SDS011;9231;48.852;9.882;2023-08-06T05:23:36;1.90;;;1.47;;
18210;SDS011;9231;48.852;9.882;2023-08-06T05:26:02;2.43;;;1.50;;
18210;SDS011;9231;48.852;9.882;2023-08-06T05:28:29;4.20;;;1.63;;
18210;SDS011;9231;48.852;9.882;2023-08-06T05:30:55;3.13;;;1.40;;
18210;SDS011;9231;48.852;9.882;2023-08-06T05:33:21;6.07;;;1.60;;
18210;SDS011;9231;48.852;9.882;2023-08-06T05:35:48;1.63;;;1.20;;
18210;SDS011;9231;48.852;9.882;2023-08-06T05:38:16;5.23;;;1.40;;
18210;SDS011;9231;48.852;9.882;2023-08-06T05:40:43;3.20;;;1.27;;
18210;SDS011;9231;48.852;9.882;2023-08-06T05:43:09;2.27;;;1.20;;
18210;SDS011;9231;48.852;9.882;2023-08-06T05:45:36;3.20;;;1.23;;
18210;SDS011;9231;48.852;9.882;2023-08-06T05:48:02;3.00;;;1.30;;
18210;SDS011;9231;48.852;9.882;2023-08-06T05:50:29;2.27;;;1.20;;
18210;SDS011;9231;48.852;9.882;2023-08-06T05:52:56;2.70;;;1.10;;
18210;SDS011;9231;48.852;9.882;2023-08-06T05:55:23;1.40;;;1.00;;
18210;SDS011;9231;48.852;9.882;2023-08-06T05:57:50;1.77;;;1.10;;
18210;SDS011;9231;48.852;9.882;2023-08-06T06:00:17;1.63;;;0.90;;
18210;SDS011;9231;48.852;9.882;2023-08-06T06:02:44;2.00;;;0.90;;
18210;SDS011;9231;48.852;9.882;2023-08-06T06:05:10;1.97;;;1.10;;
18210;SDS011;9231;48.852;9.882;2023-08-06T06:07:36;1.80;;;1.03;;
18210;SDS011;9231;48.852;9.882;2023-08-06T06:10:03;2.50;;;1.03;;
18210;SDS011;9231;48.852;9.882;2023-08-06T06:12:31;1.53;;;1.03;;
18210;SDS011;9231;48.852;9.882;2023-08-06T06:14:57;2.93;;;1.10;;
18210;SDS011;9231;48.852;9.882;2023-08-06T06:17:26;2.30;;;1.10;;
18210;SDS011;9231;48.852;9.882;2023-08-06T06:19:52;2.93;;;0.80;;
18210;SDS011;9231;48.852;9.882;2023-08-06T06:22:18;1.03;;;0.73;;
18210;SDS011;9231;48.852;9.882;2023-08-06T06:24:45;1.43;;;0.97;;
18210;SDS011;9231;48.852;9.882;2023-08-06T06:27:11;3.17;;;1.00;;
18210;SDS011;9231;48.852;9.882;2023-08-06T06:29:39;3.03;;;1.00;;
18210;SDS011;9231;48.852;9.882;2023-08-06T06:32:06;1.87;;;1.00;;
18210;SDS011;9231;48.852;9.882;2023-08-06T06:34:33;2.80;;;1.30;;
18210;SDS011;9231;48.852;9.882;2023-08-06T06:36:59;2.97;;;0.93;;
18210;SDS011;9231;48.852;9.882;2023-08-06T06:39:25;3.57;;;1.10;;
18210;SDS011;9231;48.852;9.882;2023-08-06T06:41:52;2.70;;;1.00;;
18210;SDS011;9231;48.852;9.882;2023-08-06T06:44:18;0.70;;;0.70;;
18210;SDS011;9231;48.852;9.882;2023-08-06T06:46:47;2.50;;;1.07;;
18210;SDS011;9231;48.852;9.882;2023-08-06T06:49:13;2.40;;;0.80;;
18210;SDS011;9231;48.852;9.882;2023-08-06T06:51:40;1.87;;;0.80;;
18210;SDS011;9231;48.852;9.882;2023-08-06T06:54:06;2.20;;;1.20;;
18210;SDS011;9231;48.852;9.882;2023-08-06T06:56:33;1.23;;;0.80;;
18210;SDS011;9231;48.852;9.882;2023-08-06T06:58:59;3.30;;;0.90;;
18210;SDS011;9231;48.852;9.882;2023-08-06T07:01:25;1.13;;;0.63;;
18210;SDS011;9231;48.852;9.882;2023-08-06T07:03:53;2.80;;;0.80;;
18210;SDS011;9231;48.852;9.882;2023-08-06T07:06:20;1.50;;;0.80;;
18210;SDS011;9231;48.852;9.882;2023-08-06T07:08:46;2.57;;;0.67;;
18210;SDS011;9231;48.852;9.882;2023-08-06T07:11:13;3.47;;;0.80;;
18210;SDS011;9231;48.852;9.882;2023-08-06T07:13:39;1.70;;;0.63;;
18210;SDS011;9231;48.852;9.882;2023-08-06T07:16:05;2.10;;;0.93;;
18210;SDS011;9231;48.852;9.882;2023-08-06T07:18:32;3.53;;;1.10;;
18210;SDS011;9231;48.852;9.882;2023-08-06T07:21:00;2.00;;;0.90;;
18210;SDS011;9231;48.852;9.882;2023-08-06T07:23:26;1.63;;;0.77;;
18210;SDS011;9231;48.852;9.882;2023-08-06T07:25:53;2.93;;;1.00;;
18210;SDS011;9231;48.852;9.882;2023-08-06T07:28:19;1.77;;;0.80;;
18210;SDS011;9231;48.852;9.882;2023-08-06T07:30:46;2.77;;;0.90;;
18210;SDS011;9231;48.852;9.882;2023-08-06T07:33:12;2.47;;;1.03;;
18210;SDS011;9231;48.852;9.882;2023-08-06T07:35:39;1.97;;;0.57;;
18210;SDS011;9231;48.852;9.882;2023-08-06T07:38:07;2.03;;;0.80;;
18210;SDS011;9231;48.852;9.882;2023-08-06T07:40:35;1.93;;;0.60;;
18210;SDS011;9231;48.852;9.882;2023-08-06T07:43:01;2.83;;;0.80;;
18210;SDS011;9231;48.852;9.882;2023-08-06T07:45:28;1.47;;;0.87;;
18210;SDS011;9231;48.852;9.882;2023-08-06T07:47:54;2.27;;;0.73;;
18210;SDS011;9231;48.852;9.882;2023-08-06T07:50:20;2.50;;;0.77;;
18210;SDS011;9231;48.852;9.882;2023-08-06T07:52:47;3.03;;;0.90;;
18210;SDS011;9231;48.852;9.882;2023-08-06T07:55:15;1.87;;;0.90;;
18210;SDS011;9231;48.852;9.882;2023-08-06T07:57:41;1.23;;;0.40;;
18210;SDS011;9231;48.852;9.882;2023-08-06T08:00:08;1.87;;;0.70;;
18210;SDS011;9231;48.852;9.882;2023-08-06T08:02:35;1.43;;;0.80;;
18210;SDS011;9231;48.852;9.882;2023-08-06T08:05:01;3.80;;;0.50;;
18210;SDS011;9231;48.852;9.882;2023-08-06T08:07:28;1.53;;;0.70;;
18210;SDS011;9231;48.852;9.882;2023-08-06T08:09:55;1.90;;;0.63;;
18210;SDS011;9231;48.852;9.882;2023-08-06T08:12:23;1.57;;;0.50;;
18210;SDS011;9231;48.852;9.882;2023-08-06T08:14:50;0.50;;;0.40;;
18210;SDS011;9231;48.852;9.882;2023-08-06T08:17:16;1.13;;;0.40;;
18210;SDS011;9231;48.852;9.882;2023-08-06T08:19:43;1.20;;;0.40;;
18210;SDS011;9231;48.852;9.882;2023-08-06T08:22:09;0.70;;;0.40;;
18210;SDS011;9231;48.852;9.882;2023-08-06T08:24:36;1.17;;;0.47;;
18210;SDS011;9231;48.852;9.882;2023-08-06T08:27:02;2.63;;;0.50;;
18210;SDS011;9231;48.852;9.882;2023-08-06T08:29:30;0.67;;;0.40;;
18210;SDS011;9231;48.852;9.882;2023-08-06T08:31:56;0.40;;;0.20;;
18210;SDS011;9231;48.852;9.882;2023-08-06T08:34:23;0.70;;;0.33;;
18210;SDS011;9231;48.852;9.882;2023-08-06T08:36:49;0.70;;;0.50;;
18210;SDS011;9231;48.852;9.882;2023-08-06T08:39:16;0.50;;;0.30;;
18210;SDS011;9231;48.852;9.882;2023-08-06T08:41:42;0.30;;;0.30;;
18210;SDS011;9231;48.852;9.882;2023-08-06T08:44:09;0.60;;;0.60;;
18210;SDS011;9231;48.852;9.882;2023-08-06T08:46:37;1.80;;;0.40;;
18210;SDS011;9231;48.852;9.882;2023-08-06T08:49:04;2.50;;;0.77;;
18210;SDS011;9231;48.852;9.882;2023-08-06T08:51:31;1.80;;;0.50;;
18210;SDS011;9231;48.852;9.882;2023-08-06T08:53:59;2.13;;;0.53;;
18210;SDS011;9231;48.852;9.882;2023-08-06T08:56:25;0.73;;;0.37;;
18210;SDS011;9231;48.852;9.882;2023-08-06T08:58:52;0.43;;;0.43;;
18210;SDS011;9231;48.852;9.882;2023-08-06T09:01:20;0.50;;;0.40;;
18210;SDS011;9231;48.852;9.882;2023-08-06T09:03:48;0.60;;;0.40;;
18210;SDS011;9231;48.852;9.882;2023-08-06T09:06:16;0.90;;;0.50;;
18210;SDS011;9231;48.852;9.882;2023-08-06T09:08:48;1.73;;;0.30;;
18210;SDS011;9231;48.852;9.882;2023-08-06T09:11:16;0.67;;;0.43;;
18210;SDS011;9231;48.852;9.882;2023-08-06T09:13:43;2.20;;;0.53;;
18210;SDS011;9231;48.852;9.882;2023-08-06T09:16:10;1.20;;;0.47;;
18210;SDS011;9231;48.852;9.882;2023-08-06T09:18:42;1.00;;;0.50;;
18210;SDS011;9231;48.852;9.882;2023-08-06T09:21:14;1.67;;;0.50;;
18210;SDS011;9231;48.852;9.882;2023-08-06T09:23:41;0.50;;;0.50;;
18210;SDS011;9231;48.852;9.882;2023-08-06T09:26:09;2.83;;;0.90;;
18210;SDS011;9231;48.852;9.882;2023-08-06T09:28:37;2.20;;;0.80;;
18210;SDS011;9231;48.852;9.882;2023-08-06T09:31:06;0.70;;;0.40;;
18210;SDS011;9231;48.852;9.882;2023-08-06T09:33:33;1.47;;;0.53;;
18210;SDS011;9231;48.852;9.882;2023-08-06T09:36:05;0.93;;;0.50;;
18210;SDS011;9231;48.852;9.882;2023-08-06T09:38:35;0.47;;;0.20;;
18210;SDS011;9231;48.852;9.882;2023-08-06T09:41:03;1.27;;;0.53;;
18210;SDS011;9231;48.852;9.882;2023-08-06T09:43:29;0.60;;;0.30;;
18210;SDS011;9231;48.852;9.882;2023-08-06T09:45:56;0.30;;;0.27;;
18210;SDS011;9231;48.852;9.882;2023-08-06T09:48:23;0.70;;;0.40;;
18210;SDS011;9231;48.852;9.882;2023-08-06T09:50:50;0.63;;;0.40;;
18210;SDS011;9231;48.852;9.882;2023-08-06T09:53:17;0.20;;;0.20;;
18210;SDS011;9231;48.852;9.882;2023-08-06T09:55:46;0.30;;;0.23;;
18210;SDS011;9231;48.852;9.882;2023-08-06T09:58:13;2.63;;;0.90;;
18210;SDS011;9231;48.852;9.882;2023-08-06T10:00:39;1.57;;;0.90;;
18210;SDS011;9231;48.852;9.882;2023-08-06T10:03:06;1.00;;;0.70;;
18210;SDS011;9231;48.852;9.882;2023-08-06T10:05:32;1.33;;;0.30;;
18210;SDS011;9231;48.852;9.882;2023-08-06T10:07:59;0.73;;;0.20;;
18210;SDS011;9231;48.852;9.882;2023-08-06T10:10:27;0.63;;;0.30;;
18210;SDS011;9231;48.852;9.882;2023-08-06T10:12:55;0.73;;;0.57;;
18210;SDS011;9231;48.852;9.882;2023-08-06T10:15:23;0.70;;;0.40;;
18210;SDS011;9231;48.852;9.882;2023-08-06T10:17:51;0.80;;;0.20;;
18210;SDS011;9231;48.852;9.882;2023-08-06T10:20:18;1.60;;;0.30;;
18210;SDS011;9231;48.852;9.882;2023-08-06T10:22:54;0.53;;;0.30;;
18210;SDS011;9231;48.852;9.882;2023-08-06T10:25:25;0.23;;;0.10;;
18210;SDS011;9231;48.852;9.882;2023-08-06T10:27:56;0.50;;;0.10;;
18210;SDS011;9231;48.852;9.882;2023-08-06T10:30:26;1.60;;;0.40;;
18210;SDS011;9231;48.852;9.882;2023-08-06T10:32:54;0.20;;;0.20;;
18210;SDS011;9231;48.852;9.882;2023-08-06T10:35:33;1.07;;;0.20;;
18210;SDS011;9231;48.852;9.882;2023-08-06T10:38:04;0.43;;;0.10;;
18210;SDS011;9231;48.852;9.882;2023-08-06T10:40:31;0.87;;;0.20;;
18210;SDS011;9231;48.852;9.882;2023-08-06T10:42:59;0.60;;;0.10;;
18210;SDS011;9231;48.852;9.882;2023-08-06T10:45:26;1.07;;;0.10;;
18210;SDS011;9231;48.852;9.882;2023-08-06T10:47:55;1.23;;;0.20;;
18210;SDS011;9231;48.852;9.882;2023-08-06T10:50:22;0.63;;;0.20;;
18210;SDS011;9231;48.852;9.882;2023-08-06T10:52:49;0.50;;;0.10;;
18210;SDS011;9231;48.852;9.882;2023-08-06T10:55:22;0.20;;;0.07;;
18210;SDS011;9231;48.852;9.882;2023-08-06T10:57:49;1.60;;;0.20;;
18210;SDS011;9231;48.852;9.882;2023-08-06T11:00:17;0.20;;;0.10;;
18210;SDS011;9231;48.852;9.882;2023-08-06T11:02:43;0.83;;;0.20;;
18210;SDS011;9231;48.852;9.882;2023-08-06T11:05:10;0.40;;;0.20;;
18210;SDS011;9231;48.852;9.882;2023-08-06T11:07:37;0.20;;;0.10;;
18210;SDS011;9231;48.852;9.882;2023-08-06T11:10:04;1.17;;;0.10;;
18210;SDS011;9231;48.852;9.882;2023-08-06T11:12:31;0.40;;;0.20;;
18210;SDS011;9231;48.852;9.882;2023-08-06T11:14:58;0.67;;;0.37;;
18210;SDS011;9231;48.852;9.882;2023-08-06T11:17:26;0.63;;;0.47;;
18210;SDS011;9231;48.852;9.882;2023-08-06T11:19:53;0.20;;;0.20;;
18210;SDS011;9231;48.852;9.882;2023-08-06T11:22:20;0.20;;;0.17;;
18210;SDS011;9231;48.852;9.882;2023-08-06T11:24:46;1.50;;;0.13;;
18210;SDS011;9231;48.852;9.882;2023-08-06T11:27:13;0.20;;;0.10;;
18210;SDS011;9231;48.852;9.882;2023-08-06T11:29:40;0.30;;;0.20;;
18210;SDS011;9231;48.852;9.882;2023-08-06T11:32:06;0.20;;;0.10;;
18210;SDS011;9231;48.852;9.882;2023-08-06T11:34:34;1.03;;;0.50;;
18210;SDS011;9231;48.852;9.882;2023-08-06T11:37:02;1.83;;;0.30;;
18210;SDS011;9231;48.852;9.882;2023-08-06T11:39:30;0.47;;;0.20;;
18210;SDS011;9231;48.852;9.882;2023-08-06T11:41:56;0.67;;;0.63;;
18210;SDS011;9231;48.852;9.882;2023-08-06T11:44:25;0.43;;;0.43;;
18210;SDS011;9231;48.852;9.882;2023-08-06T11:46:51;0.43;;;0.30;;
18210;SDS011;9231;48.852;9.882;2023-08-06T11:49:21;1.37;;;0.27;;
18210;SDS011;9231;48.852;9.882;2023-08-06T11:51:50;1.43;;;0.60;;
18210;SDS011;9231;48.852;9.882;2023-08-06T11:54:29;0.47;;;0.30;;
18210;SDS011;9231;48.852;9.882;2023-08-06T11:56:58;0.33;;;0.20;;
18210;SDS011;9231;48.852;9.882;2023-08-06T11:59:25;0.20;;;0.20;;
18210;SDS011;9231;48.852;9.882;2023-08-06T12:01:52;0.77;;;0.40;;
18210;SDS011;9231;48.852;9.882;2023-08-06T12:04:18;0.63;;;0.30;;
18210;SDS011;9231;48.852;9.882;2023-08-06T12:06:44;0.60;;;0.50;;
18210;SDS011;9231;48.852;9.882;2023-08-06T12:09:12;1.47;;;0.30;;
18210;SDS011;9231;48.852;9.882;2023-08-06T12:11:39;0.30;;;0.30;;
18210;SDS011;9231;48.852;9.882;2023-08-06T12:14:05;0.60;;;0.50;;
18210;SDS011;9231;48.852;9.882;2023-08-06T12:16:32;2.43;;;0.30;;
18210;SDS011;9231;48.852;9.882;2023-08-06T12:18:58;0.40;;;0.30;;
18210;SDS011;9231;48.852;9.882;2023-08-06T12:21:25;0.50;;;0.50;;
18210;SDS011;9231;48.852;9.882;2023-08-06T12:23:51;2.00;;;1.30;;
18210;SDS011;9231;48.852;9.882;2023-08-06T12:26:19;0.50;;;0.50;;
18210;SDS011;9231;48.852;9.882;2023-08-06T12:28:45;1.47;;;1.17;;
18210;SDS011;9231;48.852;9.882;2023-08-06T12:31:12;1.13;;;0.43;;
18210;SDS011;9231;48.852;9.882;2023-08-06T12:33:39;1.57;;;0.50;;
18210;SDS011;9231;48.852;9.882;2023-08-06T12:36:05;0.40;;;0.40;;
18210;SDS011;9231;48.852;9.882;2023-08-06T12:38:32;0.30;;;0.23;;
18210;SDS011;9231;48.852;9.882;2023-08-06T12:40:58;0.60;;;0.50;;
18210;SDS011;9231;48.852;9.882;2023-08-06T12:43:26;0.97;;;0.60;;
18210;SDS011;9231;48.852;9.882;2023-08-06T12:45:53;0.97;;;0.70;;
18210;SDS011;9231;48.852;9.882;2023-08-06T12:48:19;1.97;;;0.60;;
18210;SDS011;9231;48.852;9.882;2023-08-06T12:50:46;1.00;;;0.83;;
18210;SDS011;9231;48.852;9.882;2023-08-06T12:53:14;1.90;;;0.50;;
18210;SDS011;9231;48.852;9.882;2023-08-06T12:55:41;1.67;;;1.40;;
18210;SDS011;9231;48.852;9.882;2023-08-06T12:58:08;1.60;;;1.50;;
18210;SDS011;9231;48.852;9.882;2023-08-06T13:00:36;1.90;;;1.30;;
18210;SDS011;9231;48.852;9.882;2023-08-06T13:03:02;2.70;;;2.10;;
18210;SDS011;9231;48.852;9.882;2023-08-06T13:05:29;1.53;;;1.10;;
18210;SDS011;9231;48.852;9.882;2023-08-06T13:07:55;1.00;;;0.63;;
18210;SDS011;9231;48.852;9.882;2023-08-06T13:10:21;1.63;;;1.10;;
18210;SDS011;9231;48.852;9.882;2023-08-06T13:12:49;1.13;;;0.90;;
18210;SDS011;9231;48.852;9.882;2023-08-06T13:15:15;2.60;;;1.20;;
18210;SDS011;9231;48.852;9.882;2023-08-06T13:17:46;1.73;;;0.93;;
18210;SDS011;9231;48.852;9.882;2023-08-06T13:20:12;2.10;;;1.20;;
18210;SDS011;9231;48.852;9.882;2023-08-06T13:22:39;1.60;;;1.20;;
18210;SDS011;9231;48.852;9.882;2023-08-06T13:25:06;3.60;;;1.50;;
18210;SDS011;9231;48.852;9.882;2023-08-06T13:27:32;2.23;;;1.43;;
18210;SDS011;9231;48.852;9.882;2023-08-06T13:29:59;2.53;;;1.50;;
18210;SDS011;9231;48.852;9.882;2023-08-06T13:32:25;2.70;;;1.23;;
18210;SDS011;9231;48.852;9.882;2023-08-06T13:34:53;3.93;;;1.23;;
18210;SDS011;9231;48.852;9.882;2023-08-06T13:37:19;1.70;;;1.10;;
18210;SDS011;9231;48.852;9.882;2023-08-06T13:39:46;4.17;;;2.33;;
18210;SDS011;9231;48.852;9.882;2023-08-06T13:42:12;1.20;;;1.10;;
18210;SDS011;9231;48.852;9.882;2023-08-06T13:44:39;4.47;;;1.37;;
18210;SDS011;9231;48.852;9.882;2023-08-06T13:47:05;3.33;;;1.20;;
18210;SDS011;9231;48.852;9.882;2023-08-06T13:49:32;3.40;;;1.60;;
18210;SDS011;9231;48.852;9.882;2023-08-06T13:51:59;2.17;;;1.40;;
18210;SDS011;9231;48.852;9.882;2023-08-06T13:54:26;3.20;;;1.33;;
18210;SDS011;9231;48.852;9.882;2023-08-06T13:56:52;3.73;;;1.30;;
18210;SDS011;9231;48.852;9.882;2023-08-06T13:59:19;3.03;;;1.40;;
18210;SDS011;9231;48.852;9.882;2023-08-06T14:01:45;1.27;;;1.17;;
18210;SDS011;9231;48.852;9.882;2023-08-06T14:04:12;2.10;;;1.30;;
18210;SDS011;9231;48.852;9.882;2023-08-06T14:06:38;3.90;;;1.60;;
18210;SDS011;9231;48.852;9.882;2023-08-06T14:09:06;4.00;;;1.40;;
18210;SDS011;9231;48.852;9.882;2023-08-06T14:11:33;1.60;;;1.23;;
18210;SDS011;9231;48.852;9.882;2023-08-06T14:13:59;1.70;;;1.33;;
18210;SDS011;9231;48.852;9.882;2023-08-06T14:16:26;2.80;;;1.30;;
18210;SDS011;9231;48.852;9.882;2023-08-06T14:18:52;2.40;;;1.50;;
18210;SDS011;9231;48.852;9.882;2023-08-06T14:21:19;1.77;;;1.33;;
18210;SDS011;9231;48.852;9.882;2023-08-06T14:23:45;1.83;;;1.53;;
18210;SDS011;9231;48.852;9.882;2023-08-06T14:26:13;3.10;;;1.80;;
18210;SDS011;9231;48.852;9.882;2023-08-06T14:28:43;1.23;;;1.13;;
18210;SDS011;9231;48.852;9.882;2023-08-06T14:31:09;1.53;;;1.30;;
18210;SDS011;9231;48.852;9.882;2023-08-06T14:33:37;1.07;;;0.90;;
18210;SDS011;9231;48.852;9.882;2023-08-06T14:36:03;1.43;;;1.10;;
18210;SDS011;9231;48.852;9.882;2023-08-06T14:38:30;1.67;;;0.80;;
18210;SDS011;9231;48.852;9.882;2023-08-06T14:40:57;1.53;;;0.73;;
18210;SDS011;9231;48.852;9.882;2023-08-06T14:43:25;1.30;;;1.03;;
18210;SDS011;9231;48.852;9.882;2023-08-06T14:45:52;3.07;;;0.80;;
18210;SDS011;9231;48.852;9.882;2023-08-06T14:48:18;0.87;;;0.57;;
18210;SDS011;9231;48.852;9.882;2023-08-06T14:50:44;0.60;;;0.60;;
18210;SDS011;9231;48.852;9.882;2023-08-06T14:53:11;0.40;;;0.30;;
18210;SDS011;9231;48.852;9.882;2023-08-06T14:55:38;1.90;;;0.50;;
18210;SDS011;9231;48.852;9.882;2023-08-06T14:58:04;1.23;;;0.60;;